Time;durP1;ratioP1;P1;durP2;ratioP2;P2;SDS_P1;SDS_P2;PMS_P1;PMS_P2;Temp;Humidity;BMP_temperature;BMP_pressure;BME280_temperature;BME280_humidity;BME280_pressure;Samples;Min_cycle;Max_cycle;Signal;HPM_P1;HPM_P2
2022/01/16 00:04:51;;;;;;;76.20;35.22;;;;;;;;;;6266189;28;20087;-66
2022/01/16 00:07:51;;;;;;;76.80;32.90;;;;;;;;;;6255473;28;20033;-66
2022/01/16 00:10:51;;;;;;;85.35;34.40;;;;;;;;;;6254062;28;20468;-66
2022/01/16 00:13:52;;;;;;;95.82;36.88;;;;;;;;;;6255813;28;20392;-66
2022/01/16 00:16:53;;;;;;;89.57;36.67;;;;;;;;;;6250346;28;20025;-66
2022/01/16 00:19:53;;;;;;;86.00;39.00;;;;;;;;;;6258800;28;20021;-66
2022/01/16 00:22:53;;;;;;;98.75;44.42;;;;;;;;;;6251324;28;20420;-66
2022/01/16 00:25:54;;;;;;;91.80;40.33;;;;;;;;;;6258261;28;20112;-66
2022/01/16 00:28:55;;;;;;;100.78;44.00;;;;;;;;;;6254369;28;20040;-66
2022/01/16 00:31:55;;;;;;;95.85;39.92;;;;;;;;;;6246541;28;20025;-66
2022/01/16 00:34:55;;;;;;;100.22;42.22;;;;;;;;;;6265107;28;20429;-66
2022/01/16 00:37:55;;;;;;;88.78;38.92;;;;;;;;;;6243169;28;20021;-66
2022/01/16 00:40:56;;;;;;;101.95;40.35;;;;;;;;;;6261727;28;20476;-66
2022/01/16 00:43:56;;;;;;;99.85;40.45;;;;;;;;;;6266627;28;20037;-66
2022/01/16 00:46:56;;;;;;;90.22;39.45;;;;;;;;;;6262117;28;20036;-67
2022/01/16 00:49:56;;;;;;;85.85;38.92;;;;;;;;;;6267852;28;20446;-66
2022/01/16 00:52:57;;;;;;;92.80;39.92;;;;;;;;;;6268035;28;20419;-66
2022/01/16 00:55:57;;;;;;;86.43;39.72;;;;;;;;;;6267608;28;20017;-66
2022/01/16 00:58:58;;;;;;;92.35;40.30;;;;;;;;;;6245890;28;20048;-66
2022/01/16 01:02:00;;;;;;;102.28;41.20;;;;;;;;;;6251048;28;20025;-66
2022/01/16 01:05:00;;;;;;;103.22;42.92;;;;;;;;;;6267807;28;20025;-66
2022/01/16 01:08:02;;;;;;;103.68;45.78;;;;;;;;;;6249546;28;20040;-66
2022/01/16 01:11:06;;;;;;;117.50;48.88;;;;;;;;;;6244678;28;20040;-66
2022/01/16 01:17:09;;;;;;;108.68;47.83;;;;;;;;;;6243063;28;20026;-66
2022/01/16 01:20:12;;;;;;;105.50;39.72;;;;;;;;;;6256193;28;20023;-66
2022/01/16 01:23:12;;;;;;;91.95;39.25;;;;;;;;;;6263662;28;20017;-66
2022/01/16 01:26:12;;;;;;;89.82;39.63;;;;;;;;;;6267061;28;20096;-66
2022/01/16 01:29:17;;;;;;;92.68;38.95;;;;;;;;;;6262273;28;20021;-66
2022/01/16 01:32:17;;;;;;;110.70;44.97;;;;;;;;;;6267781;28;20496;-66
2022/01/16 01:35:19;;;;;;;118.13;49.78;;;;;;;;;;6270912;28;20381;-66
2022/01/16 01:38:20;;;;;;;92.82;41.05;;;;;;;;;;6247774;28;20364;-65
2022/01/16 01:41:20;;;;;;;88.18;40.88;;;;;;;;;;6267986;28;20373;-65
2022/01/16 01:51:03;;;;;;;117.40;48.00;;;;;;;;;;6270452;28;20401;-65
2022/01/16 01:54:06;;;;;;;130.35;54.40;;;;;;;;;;6272037;28;20029;-65
2022/01/16 01:57:06;;;;;;;122.15;49.97;;;;;;;;;;6271540;28;20479;-65
2022/01/16 02:00:07;;;;;;;118.10;47.42;;;;;;;;;;6246802;28;20022;-66
2022/01/16 02:06:15;;;;;;;104.72;45.05;;;;;;;;;;6270697;28;20120;-66
2022/01/16 02:09:16;;;;;;;109.47;40.17;;;;;;;;;;6271170;28;20052;-66
2022/01/16 02:12:16;;;;;;;108.68;45.05;;;;;;;;;;6268875;28;20032;-66
2022/01/16 02:15:36;;;;;;;117.88;43.22;;;;;;;;;;6267166;28;20085;-66
2022/01/16 02:28:52;;;;;;;92.32;37.83;;;;;;;;;;6260066;28;20029;-66
2022/01/16 02:32:12;;;;;;;85.40;31.90;;;;;;;;;;6256929;28;20017;-66
2022/01/16 02:35:12;;;;;;;114.72;43.80;;;;;;;;;;6257286;28;20133;-66
2022/01/16 02:38:13;;;;;;;75.40;32.25;;;;;;;;;;6266612;28;20028;-66
2022/01/16 02:41:13;;;;;;;89.60;41.55;;;;;;;;;;6271083;28;20112;-66
2022/01/16 02:47:18;;;;;;;99.78;39.72;;;;;;;;;;6258160;28;20229;-65
2022/01/16 02:50:19;;;;;;;88.15;35.58;;;;;;;;;;6270354;28;20088;-65
2022/01/16 02:53:19;;;;;;;78.93;31.83;;;;;;;;;;6270330;28;20468;-65
2022/01/16 02:56:20;;;;;;;106.65;40.83;;;;;;;;;;6270529;28;20358;-65
2022/01/16 02:59:21;;;;;;;79.13;30.42;;;;;;;;;;6257931;28;20032;-66
2022/01/16 03:02:23;;;;;;;74.28;33.50;;;;;;;;;;6255765;28;20021;-66
2022/01/16 03:05:24;;;;;;;;;;;;;;;;;;6261457;28;20028;-66
2022/01/16 03:08:24;;;;;;;82.78;33.58;;;;;;;;;;6256167;28;20003;-66
2022/01/16 03:11:34;;;;;;;74.50;30.58;;;;;;;;;;6256887;28;20099;-66
2022/01/16 03:14:34;;;;;;;102.45;44.42;;;;;;;;;;6257521;28;20115;-66
2022/01/16 03:21:53;;;;;;;68.82;27.60;;;;;;;;;;6255617;28;20033;-66
2022/01/16 03:24:17;;;;;;;90.78;37.28;;;;;;;;;;6256586;28;20029;-66
2022/01/16 03:27:18;;;;;;;73.57;32.40;;;;;;;;;;6262598;28;20041;-65
2022/01/16 03:30:18;;;;;;;64.27;28.40;;;;;;;;;;6258263;28;20094;-66
2022/01/16 03:33:20;;;;;;;97.30;39.30;;;;;;;;;;6249504;28;20299;-66
2022/01/16 03:36:20;;;;;;;67.72;29.45;;;;;;;;;;6257615;28;20433;-66
2022/01/16 03:39:21;;;;;;;78.57;31.83;;;;;;;;;;6257942;28;20140;-66
2022/01/16 03:42:26;;;;;;;85.60;37.28;;;;;;;;;;6256832;28;20392;-66
2022/01/16 03:45:26;;;;;;;88.60;38.97;;;;;;;;;;6259415;28;20036;-66
2022/01/16 03:48:26;;;;;;;71.97;28.45;;;;;;;;;;6266274;28;20393;-66
2022/01/16 03:51:27;;;;;;;73.88;28.35;;;;;;;;;;6268775;28;20021;-66
2022/01/16 03:54:29;;;;;;;76.50;29.45;;;;;;;;;;6254992;28;20532;-66
2022/01/16 03:57:29;;;;;;;;;;;;;;;;;;6260218;28;20029;-66
2022/01/16 04:00:30;;;;;;;39.10;16.92;;;;;;;;;;6267346;28;19920;-66
2022/01/16 04:03:30;;;;;;;32.13;14.32;;;;;;;;;;6265539;28;20021;-66
2022/01/16 04:06:31;;;;;;;60.35;27.60;;;;;;;;;;6267752;28;20108;-66
2022/01/16 04:09:31;;;;;;;83.32;36.15;;;;;;;;;;6261721;28;20458;-65
2022/01/16 04:12:34;;;;;;;77.18;37.20;;;;;;;;;;6246198;28;20020;-65
2022/01/16 04:15:34;;;;;;;59.97;23.85;;;;;;;;;;6244464;28;20024;-66
2022/01/16 04:18:34;;;;;;;60.17;26.38;;;;;;;;;;6254882;28;20400;-66
2022/01/16 04:21:35;;;;;;;64.38;29.90;;;;;;;;;;6264265;28;20025;-65
2022/01/16 04:24:35;;;;;;;64.63;29.58;;;;;;;;;;6268557;28;20496;-66
2022/01/16 04:27:36;;;;;;;70.35;29.70;;;;;;;;;;6256584;28;20097;-65
2022/01/16 04:30:36;;;;;;;65.95;28.73;;;;;;;;;;6253771;28;20028;-65
2022/01/16 04:33:36;;;;;;;68.95;27.70;;;;;;;;;;6267882;28;20098;-65
2022/01/16 04:36:37;;;;;;;51.00;23.85;;;;;;;;;;6267813;28;20018;-65
2022/01/16 04:39:37;;;;;;;76.93;33.63;;;;;;;;;;6268008;28;20495;-66
2022/01/16 04:45:57;;;;;;;81.32;37.90;;;;;;;;;;6250352;28;20124;-65
2022/01/16 04:48:58;;;;;;;94.35;42.97;;;;;;;;;;6260100;28;20027;-65
2022/01/16 04:51:59;;;;;;;81.43;37.92;;;;;;;;;;6267900;28;20013;-65
2022/01/16 04:54:59;;;;;;;107.15;43.50;;;;;;;;;;6254959;28;20076;-65
2022/01/16 04:57:59;;;;;;;69.63;30.80;;;;;;;;;;6262507;28;20371;-65
2022/01/16 05:00:59;;;;;;;81.45;38.33;;;;;;;;;;6262742;28;20014;-65
2022/01/16 05:04:00;;;;;;;89.75;41.08;;;;;;;;;;6242829;28;20041;-65
2022/01/16 05:07:00;;;;;;;89.07;42.45;;;;;;;;;;6242500;28;20017;-65
2022/01/16 05:10:00;;;;;;;97.65;47.20;;;;;;;;;;6244550;28;20073;-65
2022/01/16 05:13:27;;;;;;;108.70;46.03;;;;;;;;;;6243199;28;20025;-65
2022/01/16 05:16:41;;;;;;;83.03;37.22;;;;;;;;;;6242334;28;20084;-65
2022/01/16 05:19:42;;;;;;;118.07;49.13;;;;;;;;;;6243188;28;20021;-65
2022/01/16 05:22:42;;;;;;;109.97;53.88;;;;;;;;;;6246391;28;20433;-65
2022/01/16 05:25:42;;;;;;;79.45;32.90;;;;;;;;;;6243933;28;20018;-65
2022/01/16 05:28:42;;;;;;;107.80;44.13;;;;;;;;;;6246928;28;20440;-65
2022/01/16 05:31:44;;;;;;;133.18;57.13;;;;;;;;;;6242676;28;20127;-65
2022/01/16 05:34:45;;;;;;;;;;;;;;;;;;6242869;28;20054;-65
2022/01/16 05:37:45;;;;;;;105.53;50.70;;;;;;;;;;6259059;28;19966;-65
2022/01/16 05:40:45;;;;;;;115.95;48.42;;;;;;;;;;6267120;28;20100;-66
2022/01/16 05:43:46;;;;;;;96.40;44.22;;;;;;;;;;6267144;28;20032;-65
2022/01/16 05:46:46;;;;;;;84.70;42.30;;;;;;;;;;6242781;28;20029;-65
2022/01/16 05:49:46;;;;;;;90.90;42.28;;;;;;;;;;6242344;28;20430;-65
2022/01/16 05:52:47;;;;;;;83.25;37.45;;;;;;;;;;6267153;28;20104;-65
2022/01/16 05:55:47;;;;;;;94.88;43.00;;;;;;;;;;6264326;28;20500;-65
2022/01/16 05:58:48;;;;;;;93.28;38.58;;;;;;;;;;6242203;28;20049;-64
2022/01/16 06:01:48;;;;;;;102.27;41.33;;;;;;;;;;6257174;28;20480;-65
2022/01/16 06:04:48;;;;;;;95.45;41.85;;;;;;;;;;6267533;28;20092;-65
2022/01/16 06:07:56;;;;;;;95.53;45.90;;;;;;;;;;6266668;28;20702;-65
2022/01/16 06:10:56;;;;;;;120.70;48.30;;;;;;;;;;6250492;28;20025;-65
2022/01/16 06:13:56;;;;;;;88.40;34.35;;;;;;;;;;6242298;28;20040;-65
2022/01/16 06:16:57;;;;;;;93.30;42.83;;;;;;;;;;6241730;28;20093;-65
2022/01/16 06:19:57;;;;;;;104.93;42.95;;;;;;;;;;6243088;28;20041;-65
2022/01/16 06:22:57;;;;;;;95.45;42.65;;;;;;;;;;6261550;28;20017;-65
2022/01/16 06:25:58;;;;;;;89.13;42.20;;;;;;;;;;6270692;28;20012;-65
2022/01/16 06:28:58;;;;;;;98.13;41.93;;;;;;;;;;6250095;28;20133;-65
2022/01/16 06:31:58;;;;;;;89.38;41.35;;;;;;;;;;6255496;28;20371;-65
2022/01/16 06:34:58;;;;;;;86.40;40.42;;;;;;;;;;6255043;28;20044;-64
2022/01/16 06:37:59;;;;;;;87.45;42.22;;;;;;;;;;6257805;28;20044;-65
2022/01/16 06:40:59;;;;;;;97.28;43.13;;;;;;;;;;6258666;28;20427;-65
2022/01/16 06:44:00;;;;;;;92.95;44.20;;;;;;;;;;6249761;28;20021;-65
2022/01/16 06:47:00;;;;;;;77.50;37.85;;;;;;;;;;6258688;28;20083;-65
2022/01/16 06:50:00;;;;;;;80.25;38.10;;;;;;;;;;6251213;28;20075;-65
2022/01/16 06:53:01;;;;;;;88.72;39.40;;;;;;;;;;6265264;28;20059;-65
2022/01/16 06:56:01;;;;;;;86.57;37.87;;;;;;;;;;6258213;28;20044;-65
2022/01/16 06:59:01;;;;;;;84.88;40.50;;;;;;;;;;6253033;28;20017;-65
2022/01/16 07:02:02;;;;;;;68.17;32.70;;;;;;;;;;6245742;28;20018;-65
2022/01/16 07:05:04;;;;;;;85.67;35.60;;;;;;;;;;6243044;28;20026;-65
2022/01/16 07:08:04;;;;;;;74.97;37.75;;;;;;;;;;6243727;28;20045;-66
2022/01/16 07:11:04;;;;;;;80.75;40.00;;;;;;;;;;6261488;28;20032;-64
2022/01/16 07:14:05;;;;;;;85.40;39.10;;;;;;;;;;6264580;28;20028;-65
2022/01/16 07:17:05;;;;;;;76.03;37.20;;;;;;;;;;6253651;28;20144;-64
2022/01/16 07:20:06;;;;;;;80.65;37.63;;;;;;;;;;6265661;28;20051;-64
2022/01/16 07:23:06;;;;;;;80.75;43.45;;;;;;;;;;6252131;28;20103;-64
2022/01/16 07:26:07;;;;;;;79.25;37.63;;;;;;;;;;6247878;28;20435;-64
2022/01/16 07:29:07;;;;;;;100.72;57.22;;;;;;;;;;6244297;28;20025;-65
2022/01/16 07:32:07;;;;;;;110.50;58.15;;;;;;;;;;6242928;28;20101;-65
2022/01/16 07:35:08;;;;;;;101.78;56.42;;;;;;;;;;6245751;28;20500;-65
2022/01/16 07:38:08;;;;;;;106.70;48.47;;;;;;;;;;6255616;28;20019;-64
2022/01/16 07:41:09;;;;;;;100.93;47.85;;;;;;;;;;6255751;28;20017;-64
2022/01/16 07:44:09;;;;;;;87.07;44.45;;;;;;;;;;6243219;28;20021;-65
2022/01/16 07:47:09;;;;;;;78.75;40.63;;;;;;;;;;6243182;28;20033;-64
2022/01/16 07:50:11;;;;;;;125.03;56.67;;;;;;;;;;6245832;28;20419;-65
2022/01/16 07:53:11;;;;;;;87.03;45.33;;;;;;;;;;6267683;28;20476;-65
2022/01/16 07:56:11;;;;;;;82.00;42.22;;;;;;;;;;6257702;28;20020;-65
2022/01/16 07:59:12;;;;;;;91.65;40.60;;;;;;;;;;6254163;28;20025;-65
2022/01/16 08:02:12;;;;;;;89.35;44.50;;;;;;;;;;6256465;28;20401;-65
2022/01/16 08:05:12;;;;;;;99.72;47.05;;;;;;;;;;6258297;28;20017;-65
2022/01/16 08:08:13;;;;;;;93.20;50.47;;;;;;;;;;6253878;28;20028;-66
2022/01/16 08:11:13;;;;;;;97.20;49.92;;;;;;;;;;6256203;28;20013;-65
2022/01/16 08:14:13;;;;;;;93.40;46.20;;;;;;;;;;6255475;28;20032;-65
2022/01/16 08:17:13;;;;;;;100.15;48.47;;;;;;;;;;6241997;28;20072;-65
2022/01/16 08:20:14;;;;;;;121.53;57.17;;;;;;;;;;6241253;28;20063;-66
2022/01/16 08:23:14;;;;;;;113.00;57.70;;;;;;;;;;6249398;28;20312;-65
2022/01/16 08:26:14;;;;;;;100.22;54.38;;;;;;;;;;6249871;28;20066;-65
2022/01/16 08:29:15;;;;;;;101.13;49.63;;;;;;;;;;6251682;28;20107;-66
2022/01/16 08:32:16;;;;;;;101.93;49.72;;;;;;;;;;6251623;28;20055;-66
2022/01/16 08:35:16;;;;;;;100.87;46.27;;;;;;;;;;6252668;28;20378;-66
2022/01/16 08:38:17;;;;;;;84.57;39.25;;;;;;;;;;6242383;28;20275;-66
2022/01/16 08:41:17;;;;;;;91.47;47.00;;;;;;;;;;6264341;28;20028;-66
2022/01/16 08:44:19;;;;;;;82.28;43.30;;;;;;;;;;6263141;28;20388;-66
2022/01/16 08:47:19;;;;;;;97.00;47.67;;;;;;;;;;6243000;28;20111;-66
2022/01/16 08:50:19;;;;;;;101.63;50.20;;;;;;;;;;6245304;28;20024;-66
2022/01/16 08:53:20;;;;;;;97.47;51.40;;;;;;;;;;6243356;28;20101;-66
2022/01/16 08:56:20;;;;;;;114.40;54.03;;;;;;;;;;6249054;28;20036;-66
2022/01/16 08:59:20;;;;;;;99.50;49.00;;;;;;;;;;6267691;28;20009;-66
2022/01/16 09:02:21;;;;;;;83.97;45.33;;;;;;;;;;6251187;28;20029;-66
2022/01/16 09:05:21;;;;;;;81.07;43.78;;;;;;;;;;6248665;28;20079;-66
2022/01/16 09:08:22;;;;;;;81.70;37.15;;;;;;;;;;6243292;28;20020;-66
2022/01/16 09:11:25;;;;;;;79.80;36.67;;;;;;;;;;6246232;28;20017;-66
2022/01/16 09:14:25;;;;;;;88.13;42.03;;;;;;;;;;6248908;28;20041;-66
2022/01/16 09:17:25;;;;;;;61.08;27.60;;;;;;;;;;6254290;28;20489;-67
2022/01/16 09:20:26;;;;;;;78.28;39.25;;;;;;;;;;6258394;28;20108;-67
2022/01/16 09:23:26;;;;;;;74.50;38.10;;;;;;;;;;6242784;28;20500;-68
2022/01/16 09:26:27;;;;;;;66.40;31.00;;;;;;;;;;6259254;28;20021;-68
2022/01/16 09:29:27;;;;;;;67.82;29.52;;;;;;;;;;6256859;28;20100;-69
2022/01/16 09:32:27;;;;;;;67.68;34.08;;;;;;;;;;6256411;28;20021;-69
2022/01/16 09:35:28;;;;;;;66.60;32.95;;;;;;;;;;6250296;28;20049;-69
2022/01/16 09:38:28;;;;;;;65.13;30.40;;;;;;;;;;6255827;28;20081;-69
2022/01/16 09:41:29;;;;;;;59.85;28.38;;;;;;;;;;6267003;28;20162;-70
2022/01/16 09:44:29;;;;;;;56.85;27.83;;;;;;;;;;6260506;28;20130;-70
2022/01/16 09:47:29;;;;;;;61.50;31.83;;;;;;;;;;6260378;28;20017;-70
2022/01/16 09:50:30;;;;;;;56.63;27.65;;;;;;;;;;6255977;28;20013;-71
2022/01/16 09:53:30;;;;;;;69.88;31.55;;;;;;;;;;6246205;28;20013;-71
2022/01/16 09:56:30;;;;;;;46.40;21.75;;;;;;;;;;6267464;28;20040;-71
2022/01/16 09:59:31;;;;;;;74.30;32.08;;;;;;;;;;6271702;28;20321;-71
2022/01/16 10:02:31;;;;;;;59.63;29.30;;;;;;;;;;6253725;28;20085;-71
2022/01/16 10:05:34;;;;;;;65.85;29.10;;;;;;;;;;6259576;28;20252;-71
2022/01/16 10:08:36;;;;;;;61.88;29.15;;;;;;;;;;6271139;28;20024;-72
2022/01/16 10:11:39;;;;;;;61.97;30.20;;;;;;;;;;6267534;28;20026;-71
2022/01/16 10:15:13;;;;;;;71.50;31.63;;;;;;;;;;6249501;28;20018;-72
2022/01/16 10:18:07;;;;;;;61.47;30.48;;;;;;;;;;6250398;28;20095;-72
2022/01/16 10:21:08;;;;;;;67.60;32.85;;;;;;;;;;6270529;28;20019;-73
2022/01/16 10:24:15;;;;;;;70.88;35.58;;;;;;;;;;6268666;28;20067;-73
2022/01/16 10:27:17;;;;;;;76.00;32.80;;;;;;;;;;6261906;28;20032;-74
2022/01/16 10:30:18;;;;;;;60.25;27.63;;;;;;;;;;6246235;28;20537;-73
2022/01/16 10:33:20;;;;;;;72.85;36.70;;;;;;;;;;6246423;28;20382;-74
2022/01/16 10:36:37;;;;;;;75.22;35.65;;;;;;;;;;6246076;28;20363;-74
2022/01/16 10:39:50;;;;;;;50.13;26.40;;;;;;;;;;6252240;28;20025;-73
2022/01/16 10:42:52;;;;;;;74.80;33.25;;;;;;;;;;6271150;28;20017;-74
2022/01/16 10:45:58;;;;;;;31.98;15.68;;;;;;;;;;6255829;28;20036;-73
2022/01/16 10:49:11;;;;;;;52.20;25.13;;;;;;;;;;6255283;28;20025;-73
2022/01/16 10:52:12;;;;;;;53.03;24.02;;;;;;;;;;6257339;28;20035;-73
2022/01/16 10:55:12;;;;;;;47.17;19.27;;;;;;;;;;6265782;28;20393;-73
2022/01/16 10:58:14;;;;;;;46.35;17.92;;;;;;;;;;6249750;28;20076;-74
2022/01/16 11:01:16;;;;;;;27.17;12.30;;;;;;;;;;6259697;28;20099;-74
2022/01/16 11:04:16;;;;;;;;;;;;;;;;;;6253189;28;20104;-74
2022/01/16 11:07:16;;;;;;;27.13;11.07;;;;;;;;;;6258060;28;19935;-74
2022/01/16 11:10:27;;;;;;;26.80;13.02;;;;;;;;;;6267005;28;20413;-74
2022/01/16 11:13:30;;;;;;;26.50;11.80;;;;;;;;;;6270088;28;20052;-74
2022/01/16 11:16:31;;;;;;;27.80;11.48;;;;;;;;;;6270166;28;20477;-76
2022/01/16 11:19:35;;;;;;;27.23;10.05;;;;;;;;;;6265646;28;20023;-74
2022/01/16 11:22:55;;;;;;;18.83;8.68;;;;;;;;;;6254455;28;20040;-74
2022/01/16 11:25:57;;;;;;;30.58;11.32;;;;;;;;;;6268708;28;20041;-74
2022/01/16 11:28:57;;;;;;;22.80;10.85;;;;;;;;;;6246815;28;20022;-74
2022/01/16 11:31:59;;;;;;;25.58;8.95;;;;;;;;;;6247245;28;20063;-73
2022/01/16 11:35:00;;;;;;;17.38;7.55;;;;;;;;;;6251806;28;20045;-74
2022/01/16 11:38:00;;;;;;;21.70;7.95;;;;;;;;;;6253890;28;20496;-73
2022/01/16 11:41:10;;;;;;;18.75;7.70;;;;;;;;;;6257304;28;20117;-73
2022/01/16 11:44:37;;;;;;;22.33;8.40;;;;;;;;;;6252759;28;20022;-73
2022/01/16 11:47:55;;;;;;;17.40;7.50;;;;;;;;;;6241355;28;20099;-74
2022/01/16 11:50:56;;;;;;;15.55;7.38;;;;;;;;;;6255155;28;20113;-74
2022/01/16 11:54:02;;;;;;;20.02;8.75;;;;;;;;;;6257185;28;20021;-73
2022/01/16 11:57:05;;;;;;;13.52;5.95;;;;;;;;;;6255981;28;20049;-73
2022/01/16 12:00:08;;;;;;;21.08;8.23;;;;;;;;;;6243463;28;20029;-74
2022/01/16 12:03:27;;;;;;;20.92;7.90;;;;;;;;;;6244819;28;20029;-73
2022/01/16 12:06:35;;;;;;;21.35;8.40;;;;;;;;;;6244459;28;20111;-74
2022/01/16 12:09:40;;;;;;;14.32;6.93;;;;;;;;;;6250105;28;20629;-74
2022/01/16 12:12:40;;;;;;;24.92;8.38;;;;;;;;;;6265458;28;20029;-74
2022/01/16 12:15:41;;;;;;;21.05;8.98;;;;;;;;;;6267002;28;20017;-74
2022/01/16 12:18:41;;;;;;;15.85;7.50;;;;;;;;;;6266965;28;20027;-74
2022/01/16 12:21:51;;;;;;;20.10;9.57;;;;;;;;;;6263168;28;20551;-74
2022/01/16 12:25:03;;;;;;;15.10;7.05;;;;;;;;;;6249238;28;20078;-73
2022/01/16 12:28:04;;;;;;;;;;;;;;;;;;6261722;28;20025;-74
2022/01/16 12:31:06;;;;;;;12.43;5.82;;;;;;;;;;6267248;28;19926;-74
2022/01/16 12:34:06;;;;;;;18.40;8.65;;;;;;;;;;6264248;28;20051;-74
2022/01/16 12:37:27;;;;;;;19.08;9.32;;;;;;;;;;6267016;28;20025;-74
2022/01/16 12:40:27;;;;;;;21.23;9.35;;;;;;;;;;6266217;28;20017;-74
2022/01/16 12:43:40;;;;;;;18.38;8.55;;;;;;;;;;6265751;28;20078;-74
2022/01/16 12:46:42;;;;;;;27.40;9.65;;;;;;;;;;6265957;28;20086;-73
2022/01/16 12:49:43;;;;;;;25.85;9.50;;;;;;;;;;6267244;28;20104;-74
2022/01/16 12:52:46;;;;;;;18.35;6.80;;;;;;;;;;6258583;28;20360;-73
2022/01/16 12:55:47;;;;;;;14.73;7.32;;;;;;;;;;6252701;28;20033;-73
2022/01/16 12:58:47;;;;;;;17.08;9.13;;;;;;;;;;6257567;28;20071;-73
2022/01/16 13:01:58;;;;;;;24.80;10.10;;;;;;;;;;6258973;28;20028;-73
2022/01/16 13:04:58;;;;;;;22.70;9.68;;;;;;;;;;6266675;28;20045;-73
2022/01/16 13:07:59;;;;;;;22.15;10.13;;;;;;;;;;6267808;28;20066;-73
2022/01/16 13:11:29;;;;;;;25.67;11.20;;;;;;;;;;6259327;28;20013;-74
2022/01/16 13:14:33;;;;;;;21.65;9.88;;;;;;;;;;6225838;28;20053;-74
2022/01/16 13:17:34;;;;;;;24.63;11.15;;;;;;;;;;6242945;28;20116;-73
2022/01/16 13:20:34;;;;;;;18.65;11.00;;;;;;;;;;6240152;28;20040;-74
2022/01/16 13:23:34;;;;;;;23.45;11.18;;;;;;;;;;6244676;28;20022;-74
2022/01/16 13:26:34;;;;;;;21.77;9.70;;;;;;;;;;6246002;28;20029;-74
2022/01/16 13:29:36;;;;;;;17.45;7.93;;;;;;;;;;6244840;28;20370;-74
2022/01/16 13:32:37;;;;;;;25.83;12.40;;;;;;;;;;6246872;28;20064;-74
2022/01/16 13:35:38;;;;;;;26.92;10.88;;;;;;;;;;6247929;28;20284;-74
2022/01/16 13:38:38;;;;;;;24.05;11.82;;;;;;;;;;6247509;28;20396;-74
2022/01/16 13:41:43;;;;;;;26.77;11.18;;;;;;;;;;6272151;28;20040;-74
2022/01/16 13:44:44;;;;;;;17.70;7.60;;;;;;;;;;6264834;28;20021;-74
2022/01/16 13:47:55;;;;;;;35.38;15.63;;;;;;;;;;6247616;28;20032;-74
2022/01/16 13:51:02;;;;;;;28.38;13.55;;;;;;;;;;6248370;28;20071;-74
2022/01/16 13:54:10;;;;;;;26.20;13.05;;;;;;;;;;6245971;28;20120;-74
2022/01/16 13:57:11;;;;;;;29.02;15.98;;;;;;;;;;6260844;28;20097;-74
2022/01/16 14:00:11;;;;;;;27.95;11.85;;;;;;;;;;6271427;28;20021;-74
2022/01/16 14:03:16;;;;;;;20.98;9.32;;;;;;;;;;6246970;28;20083;-73
2022/01/16 14:06:17;;;;;;;19.98;9.63;;;;;;;;;;6247176;28;20017;-73
2022/01/16 14:09:18;;;;;;;17.90;8.95;;;;;;;;;;6245498;28;20025;-73
2022/01/16 14:12:19;;;;;;;33.83;13.30;;;;;;;;;;6248683;28;20104;-74
2022/01/16 14:15:19;;;;;;;31.90;17.60;;;;;;;;;;6247250;28;20263;-74
2022/01/16 14:18:38;;;;;;;30.67;13.23;;;;;;;;;;6246720;28;20528;-74
2022/01/16 14:25:05;;;;;;;31.90;13.30;;;;;;;;;;6247151;28;20060;-74
2022/01/16 14:28:05;;;;;;;24.55;10.82;;;;;;;;;;6251706;28;20029;-73
2022/01/16 14:31:05;;;;;;;28.17;13.82;;;;;;;;;;6246162;28;20077;-73
2022/01/16 14:34:05;;;;;;;35.17;16.73;;;;;;;;;;6246159;28;20124;-74
2022/01/16 14:37:09;;;;;;;30.02;15.70;;;;;;;;;;6246388;28;20064;-74
2022/01/16 14:40:10;;;;;;;41.67;20.13;;;;;;;;;;6255259;28;20381;-74
2022/01/16 14:43:16;;;;;;;37.15;18.65;;;;;;;;;;6270705;28;20439;-74
2022/01/16 14:46:17;;;;;;;45.10;23.95;;;;;;;;;;6250806;28;20025;-74
2022/01/16 14:49:18;;;;;;;58.15;29.08;;;;;;;;;;6245930;28;20068;-74
2022/01/16 14:52:18;;;;;;;92.72;41.88;;;;;;;;;;6246585;28;20469;-74
2022/01/16 14:55:18;;;;;;;150.70;68.78;;;;;;;;;;6246224;28;20505;-74
2022/01/16 14:58:19;;;;;;;146.00;70.75;;;;;;;;;;6266827;28;20567;-73
2022/01/16 15:01:19;;;;;;;125.57;60.67;;;;;;;;;;6262873;28;20027;-73
2022/01/16 15:04:20;;;;;;;101.47;49.80;;;;;;;;;;6245777;28;20104;-73
2022/01/16 15:07:20;;;;;;;111.53;55.92;;;;;;;;;;6245661;28;20025;-76
2022/01/16 15:10:20;;;;;;;95.70;47.28;;;;;;;;;;6255310;28;20029;-74
2022/01/16 15:13:20;;;;;;;89.95;47.15;;;;;;;;;;6270167;28;20186;-73
2022/01/16 15:16:25;;;;;;;96.50;47.78;;;;;;;;;;6270175;28;20020;-74
2022/01/16 15:19:32;;;;;;;110.10;52.97;;;;;;;;;;6269981;28;20029;-74
2022/01/16 15:22:33;;;;;;;65.30;30.35;;;;;;;;;;6266647;28;20461;-74
2022/01/16 15:25:33;;;;;;;202.70;93.88;;;;;;;;;;6268815;28;20028;-73
2022/01/16 15:28:33;;;;;;;88.50;47.85;;;;;;;;;;6250581;28;20021;-73
2022/01/16 15:31:33;;;;;;;104.40;45.88;;;;;;;;;;6244775;28;20100;-73
2022/01/16 15:34:34;;;;;;;97.82;46.90;;;;;;;;;;6244719;28;20045;-73
2022/01/16 15:37:34;;;;;;;93.63;40.65;;;;;;;;;;6247301;28;20033;-73
2022/01/16 15:40:36;;;;;;;80.03;36.15;;;;;;;;;;6251714;28;20119;-73
2022/01/16 15:43:36;;;;;;;139.90;57.28;;;;;;;;;;6248645;28;20033;-74
2022/01/16 15:46:36;;;;;;;105.28;46.30;;;;;;;;;;6252939;28;20112;-73
2022/01/16 15:49:37;;;;;;;89.53;39.45;;;;;;;;;;6254263;28;20059;-73
2022/01/16 15:52:38;;;;;;;114.50;40.60;;;;;;;;;;6258718;28;20026;-73
2022/01/16 15:55:38;;;;;;;94.90;34.45;;;;;;;;;;6249109;28;20018;-73
2022/01/16 15:58:39;;;;;;;96.55;39.35;;;;;;;;;;6249363;28;20025;-73
2022/01/16 16:01:39;;;;;;;99.13;51.83;;;;;;;;;;6255483;28;20018;-73
2022/01/16 16:04:39;;;;;;;84.20;45.30;;;;;;;;;;6242144;28;20084;-73
2022/01/16 16:07:40;;;;;;;65.35;33.35;;;;;;;;;;6243870;28;20033;-73
2022/01/16 16:10:40;;;;;;;74.00;34.58;;;;;;;;;;6257450;28;20104;-74
2022/01/16 16:13:40;;;;;;;83.15;34.25;;;;;;;;;;6267349;28;20035;-73
2022/01/16 16:16:40;;;;;;;94.32;39.85;;;;;;;;;;6265810;28;20031;-73
2022/01/16 16:19:41;;;;;;;78.78;31.42;;;;;;;;;;6267350;28;20100;-73
2022/01/16 16:22:41;;;;;;;97.70;39.67;;;;;;;;;;6265436;28;20029;-73
2022/01/16 16:25:41;;;;;;;44.38;20.25;;;;;;;;;;6268693;28;20036;-73
2022/01/16 16:28:42;;;;;;;78.68;27.67;;;;;;;;;;6248034;28;20536;-73
2022/01/16 16:31:42;;;;;;;49.63;23.10;;;;;;;;;;6243197;28;20024;-73
2022/01/16 16:34:43;;;;;;;62.92;21.10;;;;;;;;;;6255703;28;20535;-73
2022/01/16 16:37:43;;;;;;;36.97;15.80;;;;;;;;;;6253479;28;20021;-73
2022/01/16 16:40:44;;;;;;;28.70;14.48;;;;;;;;;;6250470;28;20389;-73
2022/01/16 16:43:44;;;;;;;49.65;16.83;;;;;;;;;;6253106;28;20151;-73
2022/01/16 16:46:44;;;;;;;32.50;15.65;;;;;;;;;;6255594;28;20021;-73
2022/01/16 16:49:45;;;;;;;22.50;12.95;;;;;;;;;;6263910;28;20028;-73
2022/01/16 16:52:46;;;;;;;22.85;11.32;;;;;;;;;;6251784;28;20036;-73
2022/01/16 16:55:47;;;;;;;39.72;16.90;;;;;;;;;;6243421;28;20013;-73
2022/01/16 16:58:47;;;;;;;29.40;14.35;;;;;;;;;;6245743;28;20440;-73
2022/01/16 17:01:47;;;;;;;33.20;15.75;;;;;;;;;;6250845;28;20384;-73
2022/01/16 17:04:47;;;;;;;30.13;12.07;;;;;;;;;;6240829;28;20026;-73
2022/01/16 17:07:48;;;;;;;37.17;14.05;;;;;;;;;;6243140;28;21869;-73
2022/01/16 17:10:48;;;;;;;34.28;17.15;;;;;;;;;;6250361;28;20032;-73
2022/01/16 17:13:49;;;;;;;22.70;11.32;;;;;;;;;;6240284;28;20543;-73
2022/01/16 17:16:51;;;;;;;34.08;13.90;;;;;;;;;;6241822;28;20057;-73
2022/01/16 17:19:51;;;;;;;39.33;17.75;;;;;;;;;;6241400;28;20466;-73
2022/01/16 17:22:52;;;;;;;36.58;16.30;;;;;;;;;;6244449;28;20026;-73
2022/01/16 17:25:52;;;;;;;37.60;20.77;;;;;;;;;;6242994;28;20025;-71
2022/01/16 17:28:52;;;;;;;29.92;14.38;;;;;;;;;;6242555;28;20465;-71
2022/01/16 17:31:52;;;;;;;36.30;18.23;;;;;;;;;;6241161;28;20052;-73
2022/01/16 17:34:54;;;;;;;47.15;19.92;;;;;;;;;;6242922;28;20665;-73
2022/01/16 17:37:54;;;;;;;32.87;16.13;;;;;;;;;;6242670;28;20018;-73
2022/01/16 17:40:54;;;;;;;37.67;18.25;;;;;;;;;;6259930;28;20473;-72
2022/01/16 17:43:54;;;;;;;25.60;13.90;;;;;;;;;;6267480;28;20021;-73
2022/01/16 17:46:55;;;;;;;34.08;16.60;;;;;;;;;;6267538;28;20017;-73
2022/01/16 17:49:56;;;;;;;33.95;17.42;;;;;;;;;;6266943;28;20033;-73
2022/01/16 17:52:57;;;;;;;43.28;16.75;;;;;;;;;;6242309;28;20033;-72
2022/01/16 17:55:57;;;;;;;39.20;19.40;;;;;;;;;;6244038;28;20024;-73
2022/01/16 17:58:57;;;;;;;43.38;17.75;;;;;;;;;;6256059;28;20028;-72
2022/01/16 18:01:57;;;;;;;36.13;18.10;;;;;;;;;;6253442;28;20013;-73
2022/01/16 18:04:58;;;;;;;37.50;18.13;;;;;;;;;;6242647;28;20025;-73
2022/01/16 18:07:59;;;;;;;39.70;17.58;;;;;;;;;;6242068;28;20477;-73
2022/01/16 18:10:59;;;;;;;44.90;18.37;;;;;;;;;;6258828;28;20024;-73
2022/01/16 18:14:00;;;;;;;36.58;17.08;;;;;;;;;;6266804;28;20017;-73
2022/01/16 18:17:00;;;;;;;32.85;16.23;;;;;;;;;;6270213;28;20546;-73
2022/01/16 18:20:01;;;;;;;31.63;14.43;;;;;;;;;;6271293;28;20020;-73